Terminal Aerodrome Forecast
Issued by NWS Grand Rapids, MI

Home | Current Version | Previous Version | Text Only | Print | Product List | Glossary On
Versions: 1 2 3 4 5 6 7 8 9 10 11 12 13 14 15 16 17 18 19 20 21 22 23 24 25 26 27 28 29 30 31 32 33 34 35
000
FTUS43 KGRR 240751 AAB
TAFGRR
TAF AMD
KGRR 240751Z 2408/2506 08012KT P6SM -SHRA OVC009
      TEMPO 2409/2411 3SM TSRA BR OVC010CB
     FM241100 07012KT 5SM -RA BR OVC008
     FM241500 07009KT 2SM -RA BR OVC004
     FM250200 22007KT 1/2SM DZ FG OVC003=

USA.gov is the U.S. government's official web portal to all federal, state and local government web resources and services.